sensor_id;sensor_type;location;lat;lon;timestamp;P1;durP1;ratioP1;P2;durP2;ratioP2
44588;SDS011;30298;52.562;13.414;2023-02-28T00:02:05;10.17;;;5.13;;
44588;SDS011;30298;52.562;13.414;2023-02-28T00:04:31;7.00;;;4.10;;
44588;SDS011;30298;52.562;13.414;2023-02-28T00:06:56;7.83;;;4.80;;
44588;SDS011;30298;52.562;13.414;2023-02-28T00:09:21;6.50;;;4.17;;
44588;SDS011;30298;52.562;13.414;2023-02-28T00:11:46;8.57;;;4.57;;
44588;SDS011;30298;52.562;13.414;2023-02-28T00:14:12;7.27;;;4.13;;
44588;SDS011;30298;52.562;13.414;2023-02-28T00:16:37;7.67;;;4.20;;
44588;SDS011;30298;52.562;13.414;2023-02-28T00:19:02;5.37;;;4.03;;
44588;SDS011;30298;52.562;13.414;2023-02-28T00:21:27;6.77;;;3.93;;
44588;SDS011;30298;52.562;13.414;2023-02-28T00:23:53;6.13;;;3.87;;
44588;SDS011;30298;52.562;13.414;2023-02-28T00:26:18;7.63;;;4.07;;
44588;SDS011;30298;52.562;13.414;2023-02-28T00:28:43;7.03;;;4.50;;
44588;SDS011;30298;52.562;13.414;2023-02-28T00:31:09;4.60;;;3.67;;
44588;SDS011;30298;52.562;13.414;2023-02-28T00:33:34;5.07;;;3.50;;
44588;SDS011;30298;52.562;13.414;2023-02-28T00:36:06;7.10;;;4.20;;
44588;SDS011;30298;52.562;13.414;2023-02-28T00:38:32;7.60;;;3.97;;
44588;SDS011;30298;52.562;13.414;2023-02-28T00:40:58;7.38;;;4.13;;
44588;SDS011;30298;52.562;13.414;2023-02-28T00:43:23;8.30;;;3.97;;
44588;SDS011;30298;52.562;13.414;2023-02-28T00:45:48;8.00;;;4.47;;
44588;SDS011;30298;52.562;13.414;2023-02-28T00:48:14;8.67;;;4.13;;
44588;SDS011;30298;52.562;13.414;2023-02-28T00:50:39;6.00;;;4.10;;
44588;SDS011;30298;52.562;13.414;2023-02-28T00:53:04;7.63;;;4.53;;
44588;SDS011;30298;52.562;13.414;2023-02-28T00:55:29;10.20;;;4.40;;
44588;SDS011;30298;52.562;13.414;2023-02-28T00:57:55;7.77;;;4.70;;
44588;SDS011;30298;52.562;13.414;2023-02-28T01:00:20;9.97;;;4.30;;
44588;SDS011;30298;52.562;13.414;2023-02-28T01:02:45;9.07;;;4.80;;
44588;SDS011;30298;52.562;13.414;2023-02-28T01:05:10;9.63;;;4.43;;
44588;SDS011;30298;52.562;13.414;2023-02-28T01:07:36;8.33;;;4.90;;
44588;SDS011;30298;52.562;13.414;2023-02-28T01:10:01;10.50;;;4.67;;
44588;SDS011;30298;52.562;13.414;2023-02-28T01:12:26;6.50;;;4.50;;
44588;SDS011;30298;52.562;13.414;2023-02-28T01:14:52;7.70;;;4.53;;
44588;SDS011;30298;52.562;13.414;2023-02-28T01:17:17;6.60;;;4.20;;
44588;SDS011;30298;52.562;13.414;2023-02-28T01:19:42;7.40;;;4.67;;
44588;SDS011;30298;52.562;13.414;2023-02-28T01:22:07;8.70;;;4.37;;
44588;SDS011;30298;52.562;13.414;2023-02-28T01:24:35;14.40;;;4.53;;
44588;SDS011;30298;52.562;13.414;2023-02-28T01:27:03;6.80;;;4.72;;
44588;SDS011;30298;52.562;13.414;2023-02-28T01:29:29;9.57;;;4.30;;
44588;SDS011;30298;52.562;13.414;2023-02-28T01:31:54;7.23;;;4.17;;
44588;SDS011;30298;52.562;13.414;2023-02-28T01:34:19;9.07;;;4.40;;
44588;SDS011;30298;52.562;13.414;2023-02-28T01:36:45;11.23;;;4.85;;
44588;SDS011;30298;52.562;13.414;2023-02-28T01:39:10;7.15;;;4.78;;
44588;SDS011;30298;52.562;13.414;2023-02-28T01:41:37;8.95;;;4.93;;
44588;SDS011;30298;52.562;13.414;2023-02-28T01:44:07;10.23;;;5.10;;
44588;SDS011;30298;52.562;13.414;2023-02-28T01:46:48;12.25;;;5.72;;
44588;SDS011;30298;52.562;13.414;2023-02-28T01:49:14;7.70;;;5.07;;
44588;SDS011;30298;52.562;13.414;2023-02-28T01:51:47;8.55;;;5.18;;
44588;SDS011;30298;52.562;13.414;2023-02-28T01:54:21;8.77;;;5.22;;
44588;SDS011;30298;52.562;13.414;2023-02-28T01:56:52;9.50;;;5.00;;
44588;SDS011;30298;52.562;13.414;2023-02-28T01:59:23;8.88;;;5.75;;
44588;SDS011;30298;52.562;13.414;2023-02-28T02:01:50;8.20;;;4.75;;
44588;SDS011;30298;52.562;13.414;2023-02-28T02:04:15;9.30;;;4.63;;
44588;SDS011;30298;52.562;13.414;2023-02-28T02:06:42;8.03;;;4.90;;
44588;SDS011;30298;52.562;13.414;2023-02-28T02:09:08;8.68;;;4.88;;
44588;SDS011;30298;52.562;13.414;2023-02-28T02:11:33;8.27;;;5.10;;
44588;SDS011;30298;52.562;13.414;2023-02-28T02:14:10;8.43;;;4.57;;
44588;SDS011;30298;52.562;13.414;2023-02-28T02:40:20;12.05;;;6.00;;
44588;SDS011;30298;52.562;13.414;2023-02-28T02:42:51;12.02;;;5.47;;
44588;SDS011;30298;52.562;13.414;2023-02-28T02:47:50;9.48;;;5.45;;
44588;SDS011;30298;52.562;13.414;2023-02-28T02:50:37;10.10;;;5.82;;
44588;SDS011;30298;52.562;13.414;2023-02-28T02:53:01;11.50;;;5.80;;
44588;SDS011;30298;52.562;13.414;2023-02-28T02:57:59;11.98;;;5.90;;
44588;SDS011;30298;52.562;13.414;2023-02-28T03:00:29;10.43;;;6.07;;
44588;SDS011;30298;52.562;13.414;2023-02-28T03:02:55;10.75;;;6.80;;
44588;SDS011;30298;52.562;13.414;2023-02-28T03:08:05;10.55;;;6.30;;
44588;SDS011;30298;52.562;13.414;2023-02-28T03:10:32;14.67;;;7.50;;
44588;SDS011;30298;52.562;13.414;2023-02-28T03:15:35;16.48;;;7.63;;
44588;SDS011;30298;52.562;13.414;2023-02-28T03:18:10;13.95;;;6.97;;
44588;SDS011;30298;52.562;13.414;2023-02-28T03:20:40;12.10;;;6.72;;
44588;SDS011;30298;52.562;13.414;2023-02-28T03:26:02;13.32;;;6.57;;
44588;SDS011;30298;52.562;13.414;2023-02-28T03:33:43;12.40;;;7.07;;
44588;SDS011;30298;52.562;13.414;2023-02-28T03:36:11;14.20;;;9.02;;
44588;SDS011;30298;52.562;13.414;2023-02-28T03:38:40;13.55;;;7.68;;
44588;SDS011;30298;52.562;13.414;2023-02-28T03:41:14;13.75;;;7.70;;
44588;SDS011;30298;52.562;13.414;2023-02-28T03:43:42;13.88;;;7.45;;
44588;SDS011;30298;52.562;13.414;2023-02-28T03:46:09;14.52;;;8.15;;
44588;SDS011;30298;52.562;13.414;2023-02-28T03:48:38;23.85;;;7.25;;
44588;SDS011;30298;52.562;13.414;2023-02-28T03:51:04;12.27;;;7.28;;
44588;SDS011;30298;52.562;13.414;2023-02-28T03:53:32;9.35;;;6.78;;
44588;SDS011;30298;52.562;13.414;2023-02-28T03:58:33;13.10;;;6.97;;
44588;SDS011;30298;52.562;13.414;2023-02-28T04:01:07;13.70;;;7.53;;
44588;SDS011;30298;52.562;13.414;2023-02-28T04:03:37;12.75;;;7.05;;
44588;SDS011;30298;52.562;13.414;2023-02-28T04:06:04;14.27;;;7.65;;
44588;SDS011;30298;52.562;13.414;2023-02-28T04:08:30;11.43;;;6.57;;
44588;SDS011;30298;52.562;13.414;2023-02-28T04:11:04;13.47;;;6.93;;
44588;SDS011;30298;52.562;13.414;2023-02-28T04:13:31;13.52;;;6.85;;
44588;SDS011;30298;52.562;13.414;2023-02-28T04:15:56;10.93;;;6.83;;
44588;SDS011;30298;52.562;13.414;2023-02-28T04:18:22;8.70;;;6.00;;
44588;SDS011;30298;52.562;13.414;2023-02-28T04:20:47;11.93;;;6.30;;
44588;SDS011;30298;52.562;13.414;2023-02-28T04:23:12;11.87;;;5.83;;
44588;SDS011;30298;52.562;13.414;2023-02-28T04:25:38;12.57;;;6.23;;
44588;SDS011;30298;52.562;13.414;2023-02-28T04:28:05;11.25;;;7.00;;
44588;SDS011;30298;52.562;13.414;2023-02-28T04:30:30;10.33;;;6.30;;
44588;SDS011;30298;52.562;13.414;2023-02-28T04:32:57;13.55;;;7.40;;
44588;SDS011;30298;52.562;13.414;2023-02-28T04:35:23;13.73;;;6.65;;
44588;SDS011;30298;52.562;13.414;2023-02-28T04:37:48;14.83;;;7.67;;
44588;SDS011;30298;52.562;13.414;2023-02-28T04:40:13;12.77;;;7.37;;
44588;SDS011;30298;52.562;13.414;2023-02-28T04:42:38;18.43;;;8.37;;
44588;SDS011;30298;52.562;13.414;2023-02-28T04:45:04;12.67;;;7.30;;
44588;SDS011;30298;52.562;13.414;2023-02-28T04:47:29;13.88;;;7.57;;
44588;SDS011;30298;52.562;13.414;2023-02-28T04:49:55;17.37;;;8.20;;
44588;SDS011;30298;52.562;13.414;2023-02-28T04:52:20;13.27;;;6.97;;
44588;SDS011;30298;52.562;13.414;2023-02-28T04:54:45;15.40;;;7.30;;
44588;SDS011;30298;52.562;13.414;2023-02-28T04:57:11;11.77;;;6.47;;
44588;SDS011;30298;52.562;13.414;2023-02-28T04:59:36;9.63;;;6.20;;
44588;SDS011;30298;52.562;13.414;2023-02-28T05:02:01;15.47;;;6.67;;
44588;SDS011;30298;52.562;13.414;2023-02-28T05:04:31;13.85;;;5.90;;
44588;SDS011;30298;52.562;13.414;2023-02-28T05:06:59;12.63;;;6.18;;
44588;SDS011;30298;52.562;13.414;2023-02-28T05:09:24;10.82;;;6.15;;
44588;SDS011;30298;52.562;13.414;2023-02-28T05:11:49;11.30;;;6.10;;
44588;SDS011;30298;52.562;13.414;2023-02-28T05:14:15;14.10;;;7.13;;
44588;SDS011;30298;52.562;13.414;2023-02-28T05:16:40;12.37;;;7.00;;
44588;SDS011;30298;52.562;13.414;2023-02-28T05:19:05;15.20;;;7.23;;
44588;SDS011;30298;52.562;13.414;2023-02-28T05:21:34;13.43;;;6.80;;
44588;SDS011;30298;52.562;13.414;2023-02-28T05:24:01;14.40;;;8.02;;
44588;SDS011;30298;52.562;13.414;2023-02-28T05:26:26;15.00;;;7.40;;
44588;SDS011;30298;52.562;13.414;2023-02-28T05:28:52;11.18;;;7.50;;
44588;SDS011;30298;52.562;13.414;2023-02-28T05:31:18;11.70;;;6.32;;
44588;SDS011;30298;52.562;13.414;2023-02-28T05:33:43;14.15;;;6.97;;
44588;SDS011;30298;52.562;13.414;2023-02-28T05:36:09;14.50;;;8.30;;
44588;SDS011;30298;52.562;13.414;2023-02-28T05:38:34;11.53;;;7.43;;
44588;SDS011;30298;52.562;13.414;2023-02-28T05:40:59;16.60;;;8.90;;
44588;SDS011;30298;52.562;13.414;2023-02-28T05:43:25;14.43;;;8.73;;
44588;SDS011;30298;52.562;13.414;2023-02-28T05:45:50;14.77;;;8.07;;
44588;SDS011;30298;52.562;13.414;2023-02-28T05:48:15;16.00;;;9.13;;
44588;SDS011;30298;52.562;13.414;2023-02-28T05:50:41;15.85;;;8.60;;
44588;SDS011;30298;52.562;13.414;2023-02-28T05:53:07;22.75;;;9.55;;
44588;SDS011;30298;52.562;13.414;2023-02-28T05:55:33;17.00;;;9.65;;
44588;SDS011;30298;52.562;13.414;2023-02-28T05:57:58;17.83;;;9.07;;
44588;SDS011;30298;52.562;13.414;2023-02-28T06:00:23;16.63;;;8.57;;
44588;SDS011;30298;52.562;13.414;2023-02-28T06:02:49;17.33;;;9.23;;
44588;SDS011;30298;52.562;13.414;2023-02-28T06:05:15;19.20;;;8.53;;
44588;SDS011;30298;52.562;13.414;2023-02-28T06:07:40;18.33;;;9.20;;
44588;SDS011;30298;52.562;13.414;2023-02-28T06:10:06;17.10;;;8.47;;
44588;SDS011;30298;52.562;13.414;2023-02-28T06:12:31;14.95;;;8.00;;
44588;SDS011;30298;52.562;13.414;2023-02-28T06:14:57;15.33;;;8.93;;
44588;SDS011;30298;52.562;13.414;2023-02-28T06:17:22;15.80;;;8.83;;
44588;SDS011;30298;52.562;13.414;2023-02-28T06:19:47;14.63;;;8.80;;
44588;SDS011;30298;52.562;13.414;2023-02-28T06:22:13;20.15;;;9.00;;
44588;SDS011;30298;52.562;13.414;2023-02-28T06:24:38;16.03;;;9.03;;
44588;SDS011;30298;52.562;13.414;2023-02-28T06:27:03;16.33;;;8.93;;
44588;SDS011;30298;52.562;13.414;2023-02-28T06:29:33;18.08;;;9.18;;
44588;SDS011;30298;52.562;13.414;2023-02-28T06:31:58;18.30;;;8.65;;
44588;SDS011;30298;52.562;13.414;2023-02-28T06:34:24;19.47;;;9.63;;
44588;SDS011;30298;52.562;13.414;2023-02-28T06:36:50;16.57;;;9.77;;
44588;SDS011;30298;52.562;13.414;2023-02-28T06:41:41;21.05;;;9.57;;
44588;SDS011;30298;52.562;13.414;2023-02-28T06:44:11;17.67;;;9.20;;
44588;SDS011;30298;52.562;13.414;2023-02-28T06:46:38;14.70;;;8.65;;
44588;SDS011;30298;52.562;13.414;2023-02-28T06:49:03;14.13;;;8.80;;
44588;SDS011;30298;52.562;13.414;2023-02-28T06:51:30;16.60;;;9.15;;
44588;SDS011;30298;52.562;13.414;2023-02-28T06:53:55;14.40;;;8.80;;
44588;SDS011;30298;52.562;13.414;2023-02-28T06:56:20;15.57;;;8.70;;
44588;SDS011;30298;52.562;13.414;2023-02-28T06:58:49;18.20;;;10.23;;
44588;SDS011;30298;52.562;13.414;2023-02-28T07:01:17;19.75;;;9.65;;
44588;SDS011;30298;52.562;13.414;2023-02-28T07:03:43;15.45;;;8.77;;
44588;SDS011;30298;52.562;13.414;2023-02-28T07:06:09;15.67;;;9.00;;
44588;SDS011;30298;52.562;13.414;2023-02-28T07:08:34;16.27;;;9.70;;
44588;SDS011;30298;52.562;13.414;2023-02-28T07:11:03;17.77;;;9.80;;
44588;SDS011;30298;52.562;13.414;2023-02-28T07:13:28;19.15;;;9.57;;
44588;SDS011;30298;52.562;13.414;2023-02-28T07:16:01;22.55;;;10.05;;
44588;SDS011;30298;52.562;13.414;2023-02-28T07:18:27;18.13;;;9.45;;
44588;SDS011;30298;52.562;13.414;2023-02-28T07:20:52;19.50;;;9.98;;
44588;SDS011;30298;52.562;13.414;2023-02-28T07:23:18;20.70;;;9.68;;
44588;SDS011;30298;52.562;13.414;2023-02-28T07:25:43;18.80;;;10.43;;
44588;SDS011;30298;52.562;13.414;2023-02-28T07:28:10;22.10;;;12.95;;
44588;SDS011;30298;52.562;13.414;2023-02-28T07:30:35;13.80;;;9.63;;
44588;SDS011;30298;52.562;13.414;2023-02-28T07:33:01;22.60;;;10.85;;
44588;SDS011;30298;52.562;13.414;2023-02-28T07:35:26;21.27;;;10.27;;
44588;SDS011;30298;52.562;13.414;2023-02-28T07:37:52;18.00;;;10.27;;
44588;SDS011;30298;52.562;13.414;2023-02-28T07:40:17;17.10;;;10.20;;
44588;SDS011;30298;52.562;13.414;2023-02-28T07:42:43;20.80;;;11.45;;
44588;SDS011;30298;52.562;13.414;2023-02-28T07:45:09;19.52;;;12.48;;
44588;SDS011;30298;52.562;13.414;2023-02-28T07:47:36;19.65;;;11.57;;
44588;SDS011;30298;52.562;13.414;2023-02-28T07:50:02;22.48;;;11.35;;
44588;SDS011;30298;52.562;13.414;2023-02-28T07:52:27;22.53;;;12.33;;
44588;SDS011;30298;52.562;13.414;2023-02-28T07:54:53;19.20;;;11.50;;
44588;SDS011;30298;52.562;13.414;2023-02-28T07:57:18;22.25;;;11.23;;
44588;SDS011;30298;52.562;13.414;2023-02-28T07:59:43;23.33;;;13.07;;
44588;SDS011;30298;52.562;13.414;2023-02-28T08:02:11;21.50;;;11.90;;
44588;SDS011;30298;52.562;13.414;2023-02-28T08:04:37;20.08;;;11.10;;
44588;SDS011;30298;52.562;13.414;2023-02-28T08:07:02;20.80;;;11.93;;
44588;SDS011;30298;52.562;13.414;2023-02-28T08:09:28;16.00;;;9.60;;
44588;SDS011;30298;52.562;13.414;2023-02-28T08:11:54;19.92;;;10.82;;
44588;SDS011;30298;52.562;13.414;2023-02-28T08:14:23;17.97;;;10.03;;
44588;SDS011;30298;52.562;13.414;2023-02-28T08:16:48;17.25;;;8.32;;
44588;SDS011;30298;52.562;13.414;2023-02-28T08:19:13;15.63;;;8.83;;
44588;SDS011;30298;52.562;13.414;2023-02-28T08:21:39;16.73;;;7.60;;
44588;SDS011;30298;52.562;13.414;2023-02-28T08:24:05;13.43;;;7.80;;
44588;SDS011;30298;52.562;13.414;2023-02-28T08:26:30;15.32;;;7.20;;
44588;SDS011;30298;52.562;13.414;2023-02-28T08:28:55;13.83;;;6.70;;
44588;SDS011;30298;52.562;13.414;2023-02-28T08:31:21;8.80;;;5.87;;
44588;SDS011;30298;52.562;13.414;2023-02-28T08:33:47;10.15;;;5.72;;
44588;SDS011;30298;52.562;13.414;2023-02-28T08:36:14;14.02;;;6.50;;
44588;SDS011;30298;52.562;13.414;2023-02-28T08:38:40;10.32;;;5.90;;
44588;SDS011;30298;52.562;13.414;2023-02-28T08:41:07;14.17;;;6.00;;
44588;SDS011;30298;52.562;13.414;2023-02-28T08:43:33;16.23;;;6.57;;
44588;SDS011;30298;52.562;13.414;2023-02-28T08:45:59;10.50;;;5.60;;
44588;SDS011;30298;52.562;13.414;2023-02-28T08:48:26;8.10;;;4.87;;
44588;SDS011;30298;52.562;13.414;2023-02-28T08:51:01;8.75;;;4.75;;
44588;SDS011;30298;52.562;13.414;2023-02-28T08:53:27;7.32;;;3.72;;
44588;SDS011;30298;52.562;13.414;2023-02-28T08:55:58;6.00;;;4.00;;
44588;SDS011;30298;52.562;13.414;2023-02-28T08:58:24;7.68;;;4.55;;
44588;SDS011;30298;52.562;13.414;2023-02-28T09:00:50;7.43;;;4.13;;
44588;SDS011;30298;52.562;13.414;2023-02-28T09:03:15;14.20;;;5.43;;
44588;SDS011;30298;52.562;13.414;2023-02-28T09:05:40;7.57;;;4.07;;
44588;SDS011;30298;52.562;13.414;2023-02-28T09:08:05;15.77;;;4.10;;
44588;SDS011;30298;52.562;13.414;2023-02-28T09:10:31;6.80;;;3.33;;
44588;SDS011;30298;52.562;13.414;2023-02-28T09:12:56;16.40;;;3.90;;
44588;SDS011;30298;52.562;13.414;2023-02-28T09:15:21;6.73;;;3.47;;
44588;SDS011;30298;52.562;13.414;2023-02-28T09:17:47;7.27;;;3.43;;
44588;SDS011;30298;52.562;13.414;2023-02-28T09:20:12;7.40;;;3.20;;
44588;SDS011;30298;52.562;13.414;2023-02-28T09:22:37;8.05;;;3.10;;
44588;SDS011;30298;52.562;13.414;2023-02-28T09:25:03;9.65;;;3.08;;
44588;SDS011;30298;52.562;13.414;2023-02-28T09:27:29;7.45;;;2.90;;
44588;SDS011;30298;52.562;13.414;2023-02-28T09:29:54;5.37;;;2.70;;
44588;SDS011;30298;52.562;13.414;2023-02-28T09:32:19;10.23;;;2.90;;
44588;SDS011;30298;52.562;13.414;2023-02-28T09:34:45;5.33;;;2.67;;
44588;SDS011;30298;52.562;13.414;2023-02-28T09:37:10;6.97;;;3.00;;
44588;SDS011;30298;52.562;13.414;2023-02-28T09:39:35;9.07;;;2.63;;
44588;SDS011;30298;52.562;13.414;2023-02-28T09:42:00;4.00;;;2.93;;
44588;SDS011;30298;52.562;13.414;2023-02-28T09:44:29;6.90;;;3.05;;
44588;SDS011;30298;52.562;13.414;2023-02-28T09:47:00;5.43;;;3.33;;
44588;SDS011;30298;52.562;13.414;2023-02-28T09:49:40;4.57;;;2.83;;
44588;SDS011;30298;52.562;13.414;2023-02-28T09:52:13;8.35;;;2.75;;
44588;SDS011;30298;52.562;13.414;2023-02-28T09:54:41;7.18;;;2.75;;
44588;SDS011;30298;52.562;13.414;2023-02-28T09:57:17;3.90;;;2.63;;
44588;SDS011;30298;52.562;13.414;2023-02-28T10:09:52;3.55;;;2.40;;
44588;SDS011;30298;52.562;13.414;2023-02-28T10:12:18;16.48;;;3.17;;
44588;SDS011;30298;52.562;13.414;2023-02-28T10:14:45;5.63;;;2.53;;
44588;SDS011;30298;52.562;13.414;2023-02-28T10:17:12;5.22;;;2.40;;
44588;SDS011;30298;52.562;13.414;2023-02-28T10:24:46;5.10;;;2.72;;
44588;SDS011;30298;52.562;13.414;2023-02-28T10:27:15;7.50;;;2.45;;
44588;SDS011;30298;52.562;13.414;2023-02-28T10:29:44;6.80;;;2.65;;
44588;SDS011;30298;52.562;13.414;2023-02-28T10:32:10;3.95;;;2.50;;
44588;SDS011;30298;52.562;13.414;2023-02-28T10:34:37;5.50;;;2.65;;
44588;SDS011;30298;52.562;13.414;2023-02-28T10:37:03;7.40;;;3.90;;
44588;SDS011;30298;52.562;13.414;2023-02-28T10:39:39;5.93;;;3.35;;
44588;SDS011;30298;52.562;13.414;2023-02-28T10:42:05;3.00;;;2.20;;
44588;SDS011;30298;52.562;13.414;2023-02-28T10:44:43;8.07;;;3.08;;
44588;SDS011;30298;52.562;13.414;2023-02-28T10:47:13;6.97;;;2.57;;
44588;SDS011;30298;52.562;13.414;2023-02-28T10:49:39;5.90;;;2.28;;
44588;SDS011;30298;52.562;13.414;2023-02-28T10:52:11;5.82;;;2.42;;
44588;SDS011;30298;52.562;13.414;2023-02-28T10:54:36;3.33;;;2.43;;
44588;SDS011;30298;52.562;13.414;2023-02-28T10:57:23;7.18;;;2.78;;
44588;SDS011;30298;52.562;13.414;2023-02-28T10:59:52;6.05;;;3.00;;
44588;SDS011;30298;52.562;13.414;2023-02-28T11:04:55;3.78;;;2.25;;
44588;SDS011;30298;52.562;13.414;2023-02-28T11:07:21;7.10;;;2.97;;
44588;SDS011;30298;52.562;13.414;2023-02-28T11:09:51;3.78;;;2.60;;
44588;SDS011;30298;52.562;13.414;2023-02-28T11:12:27;4.35;;;2.60;;
44588;SDS011;30298;52.562;13.414;2023-02-28T11:15:00;5.00;;;2.28;;
44588;SDS011;30298;52.562;13.414;2023-02-28T11:17:27;3.72;;;2.47;;
44588;SDS011;30298;52.562;13.414;2023-02-28T11:22:19;4.27;;;2.77;;
44588;SDS011;30298;52.562;13.414;2023-02-28T11:24:47;17.20;;;8.23;;
44588;SDS011;30298;52.562;13.414;2023-02-28T11:27:24;4.13;;;2.90;;
44588;SDS011;30298;52.562;13.414;2023-02-28T11:29:49;6.15;;;2.45;;
44588;SDS011;30298;52.562;13.414;2023-02-28T11:32:19;8.83;;;3.20;;
44588;SDS011;30298;52.562;13.414;2023-02-28T11:34:44;6.00;;;3.17;;
44588;SDS011;30298;52.562;13.414;2023-02-28T11:37:11;8.20;;;2.88;;
44588;SDS011;30298;52.562;13.414;2023-02-28T11:39:37;3.55;;;2.60;;
44588;SDS011;30298;52.562;13.414;2023-02-28T11:45:48;5.40;;;2.92;;
44588;SDS011;30298;52.562;13.414;2023-02-28T11:50:32;5.97;;;4.00;;
44588;SDS011;30298;52.562;13.414;2023-02-28T12:01:17;3.22;;;2.65;;
44588;SDS011;30298;52.562;13.414;2023-02-28T12:04:04;4.70;;;3.10;;
44588;SDS011;30298;52.562;13.414;2023-02-28T12:06:55;4.88;;;2.95;;
44588;SDS011;30298;52.562;13.414;2023-02-28T12:09:28;4.15;;;2.80;;
44588;SDS011;30298;52.562;13.414;2023-02-28T12:14:50;6.95;;;3.53;;
44588;SDS011;30298;52.562;13.414;2023-02-28T12:20:12;8.18;;;2.80;;
44588;SDS011;30298;52.562;13.414;2023-02-28T12:22:45;5.28;;;3.00;;
44588;SDS011;30298;52.562;13.414;2023-02-28T12:30:15;4.38;;;3.05;;
44588;SDS011;30298;52.562;13.414;2023-02-28T12:32:42;6.40;;;3.35;;
44588;SDS011;30298;52.562;13.414;2023-02-28T12:37:36;5.27;;;3.13;;
44588;SDS011;30298;52.562;13.414;2023-02-28T12:40:29;6.03;;;3.40;;
44588;SDS011;30298;52.562;13.414;2023-02-28T12:42:52;6.03;;;3.85;;
44588;SDS011;30298;52.562;13.414;2023-02-28T12:47:46;4.57;;;3.30;;
44588;SDS011;30298;52.562;13.414;2023-02-28T12:50:13;8.82;;;3.45;;
44588;SDS011;30298;52.562;13.414;2023-02-28T13:06:20;16.58;;;11.35;;
44588;SDS011;30298;52.562;13.414;2023-02-28T13:11:25;7.78;;;3.20;;
44588;SDS011;30298;52.562;13.414;2023-02-28T13:13:57;6.55;;;3.70;;
44588;SDS011;30298;52.562;13.414;2023-02-28T13:16:22;6.45;;;3.35;;
44588;SDS011;30298;52.562;13.414;2023-02-28T13:18:48;5.57;;;3.60;;
44588;SDS011;30298;52.562;13.414;2023-02-28T13:26:20;5.85;;;3.13;;
44588;SDS011;30298;52.562;13.414;2023-02-28T13:31:14;9.25;;;3.30;;
44588;SDS011;30298;52.562;13.414;2023-02-28T13:47:18;5.88;;;3.17;;
44588;SDS011;30298;52.562;13.414;2023-02-28T13:51:48;7.22;;;5.00;;
44588;SDS011;30298;52.562;13.414;2023-02-28T13:56:52;4.88;;;3.13;;
44588;SDS011;30298;52.562;13.414;2023-02-28T13:59:25;5.00;;;3.60;;
44588;SDS011;30298;52.562;13.414;2023-02-28T14:07:21;6.07;;;3.70;;
44588;SDS011;30298;52.562;13.414;2023-02-28T14:09:51;5.72;;;3.80;;
44588;SDS011;30298;52.562;13.414;2023-02-28T14:17:51;5.93;;;3.20;;
44588;SDS011;30298;52.562;13.414;2023-02-28T14:20:16;8.63;;;3.35;;
44588;SDS011;30298;52.562;13.414;2023-02-28T14:23:26;5.33;;;3.03;;
44588;SDS011;30298;52.562;13.414;2023-02-28T14:25:34;8.93;;;4.40;;
44588;SDS011;30298;52.562;13.414;2023-02-28T14:33:27;4.10;;;3.20;;
44588;SDS011;30298;52.562;13.414;2023-02-28T14:41:12;11.77;;;3.65;;
44588;SDS011;30298;52.562;13.414;2023-02-28T14:43:47;7.72;;;3.50;;
44588;SDS011;30298;52.562;13.414;2023-02-28T14:46:15;51.15;;;19.20;;
44588;SDS011;30298;52.562;13.414;2023-02-28T14:48:44;6.65;;;3.80;;
44588;SDS011;30298;52.562;13.414;2023-02-28T14:51:10;6.72;;;2.97;;
44588;SDS011;30298;52.562;13.414;2023-02-28T14:53:36;5.87;;;3.33;;
44588;SDS011;30298;52.562;13.414;2023-02-28T14:56:02;8.20;;;3.88;;
44588;SDS011;30298;52.562;13.414;2023-02-28T14:58:28;6.45;;;3.30;;
44588;SDS011;30298;52.562;13.414;2023-02-28T15:00:55;8.23;;;3.40;;
44588;SDS011;30298;52.562;13.414;2023-02-28T15:05:57;6.57;;;3.57;;
44588;SDS011;30298;52.562;13.414;2023-02-28T15:08:22;5.75;;;3.38;;
44588;SDS011;30298;52.562;13.414;2023-02-28T15:11:07;7.43;;;3.90;;
44588;SDS011;30298;52.562;13.414;2023-02-28T15:13:40;17.05;;;7.35;;
44588;SDS011;30298;52.562;13.414;2023-02-28T15:16:52;8.02;;;3.60;;
44588;SDS011;30298;52.562;13.414;2023-02-28T15:18:53;9.07;;;3.60;;
44588;SDS011;30298;52.562;13.414;2023-02-28T15:21:38;5.28;;;2.88;;
44588;SDS011;30298;52.562;13.414;2023-02-28T15:24:10;9.30;;;3.63;;
44588;SDS011;30298;52.562;13.414;2023-02-28T15:26:38;4.80;;;3.25;;
44588;SDS011;30298;52.562;13.414;2023-02-28T15:29:05;8.32;;;3.83;;
44588;SDS011;30298;52.562;13.414;2023-02-28T15:31:33;5.72;;;3.45;;
44588;SDS011;30298;52.562;13.414;2023-02-28T15:34:03;9.65;;;4.25;;
44588;SDS011;30298;52.562;13.414;2023-02-28T15:36:29;13.63;;;6.35;;
44588;SDS011;30298;52.562;13.414;2023-02-28T15:38:56;10.98;;;6.15;;
44588;SDS011;30298;52.562;13.414;2023-02-28T15:41:34;7.70;;;3.90;;
44588;SDS011;30298;52.562;13.414;2023-02-28T15:44:24;6.07;;;3.40;;
44588;SDS011;30298;52.562;13.414;2023-02-28T15:46:58;7.55;;;3.95;;
44588;SDS011;30298;52.562;13.414;2023-02-28T15:49:24;9.48;;;4.68;;
44588;SDS011;30298;52.562;13.414;2023-02-28T15:51:50;10.18;;;4.90;;
44588;SDS011;30298;52.562;13.414;2023-02-28T15:54:21;8.60;;;3.85;;
44588;SDS011;30298;52.562;13.414;2023-02-28T15:56:50;7.40;;;3.58;;
44588;SDS011;30298;52.562;13.414;2023-02-28T15:59:26;8.23;;;3.65;;
44588;SDS011;30298;52.562;13.414;2023-02-28T16:02:03;9.55;;;4.47;;
44588;SDS011;30298;52.562;13.414;2023-02-28T16:04:28;8.82;;;3.78;;
44588;SDS011;30298;52.562;13.414;2023-02-28T16:09:24;7.57;;;4.40;;
44588;SDS011;30298;52.562;13.414;2023-02-28T16:11:50;6.70;;;4.07;;
44588;SDS011;30298;52.562;13.414;2023-02-28T16:14:24;15.07;;;6.88;;
44588;SDS011;30298;52.562;13.414;2023-02-28T16:16:53;8.60;;;4.45;;
44588;SDS011;30298;52.562;13.414;2023-02-28T16:19:18;10.85;;;5.80;;
44588;SDS011;30298;52.562;13.414;2023-02-28T16:21:44;20.02;;;7.43;;
44588;SDS011;30298;52.562;13.414;2023-02-28T16:24:10;10.60;;;4.85;;
44588;SDS011;30298;52.562;13.414;2023-02-28T16:26:35;7.60;;;4.47;;
44588;SDS011;30298;52.562;13.414;2023-02-28T16:29:02;10.00;;;4.10;;
44588;SDS011;30298;52.562;13.414;2023-02-28T16:31:28;5.32;;;3.72;;
44588;SDS011;30298;52.562;13.414;2023-02-28T16:33:53;11.48;;;4.80;;
44588;SDS011;30298;52.562;13.414;2023-02-28T16:36:22;7.27;;;4.20;;
44588;SDS011;30298;52.562;13.414;2023-02-28T16:38:51;10.77;;;4.63;;
44588;SDS011;30298;52.562;13.414;2023-02-28T16:41:18;9.43;;;4.23;;
44588;SDS011;30298;52.562;13.414;2023-02-28T16:43:45;6.35;;;3.97;;
44588;SDS011;30298;52.562;13.414;2023-02-28T16:46:11;7.05;;;4.50;;
44588;SDS011;30298;52.562;13.414;2023-02-28T16:51:02;11.30;;;5.07;;
44588;SDS011;30298;52.562;13.414;2023-02-28T16:53:29;18.20;;;6.53;;
44588;SDS011;30298;52.562;13.414;2023-02-28T16:55:54;9.47;;;4.83;;
44588;SDS011;30298;52.562;13.414;2023-02-28T16:58:20;9.73;;;5.57;;
44588;SDS011;30298;52.562;13.414;2023-02-28T17:00:46;10.93;;;4.95;;
44588;SDS011;30298;52.562;13.414;2023-02-28T17:03:26;12.00;;;5.00;;
44588;SDS011;30298;52.562;13.414;2023-02-28T17:05:52;9.85;;;4.75;;
44588;SDS011;30298;52.562;13.414;2023-02-28T17:08:17;12.37;;;5.63;;
44588;SDS011;30298;52.562;13.414;2023-02-28T17:10:43;9.35;;;6.15;;
44588;SDS011;30298;52.562;13.414;2023-02-28T17:13:08;11.13;;;5.50;;
44588;SDS011;30298;52.562;13.414;2023-02-28T17:15:34;17.40;;;6.82;;
44588;SDS011;30298;52.562;13.414;2023-02-28T17:18:00;12.48;;;4.75;;
44588;SDS011;30298;52.562;13.414;2023-02-28T17:20:25;9.80;;;4.37;;